^^
Saratoga-Weather Station Historical Data
Daily Summary for July 01, 2022 Units:  English    Metric   Both
Daily Weekly Monthly Yearly Custom
  High: Low: Average:
Temperature: 71.4 °F 54.3 °F 61.9 °F
Dew Point: 55.4 °F 49.5 °F 52.2 °F
Humidity: 92% 46% 73%
Wind Speed: 13mph 0mph 2.4mph
Wind Gust: 14mph - -
Wind- - West
Pressure: 30.2 in 30 in -
Precipitation: 0 in    
Historical Graphs
 
 
Tabular Data for July 01, 2022
Time Temperature Dew Point Pressure Wind Wind Speed Wind Gust Humidity Rainfall Rate (Hourly) solar
00:00 55.8 °F 53.4 °F 30 in West 0.9 mph 3 mph 92% 0 in 0 W/m2
00:05 55.8 °F 53.4 °F 30 in WNW 2.9 mph 3 mph 92% 0 in 0 W/m2
00:10 55.8 °F 53.4 °F 30 in WNW 2 mph 3 mph 92% 0 in 0 W/m2
00:15 55.8 °F 53.4 °F 30 in West 2.9 mph 6 mph 92% 0 in 0 W/m2
00:20 55.8 °F 53.4 °F 30 in Calm   6 mph 92% 0 in 0 W/m2
00:25 55.8 °F 53.4 °F 30 in WNW 2 mph 3 mph 92% 0 in 0 W/m2
00:30 55.8 °F 53.4 °F 30 in WNW 2 mph 5 mph 92% 0 in 0 W/m2
00:35 55.8 °F 53.4 °F 30 in Calm   2 mph 92% 0 in 0 W/m2
00:40 55.8 °F 53.4 °F 30 in Calm   1 mph 92% 0 in 0 W/m2
00:45 55.8 °F 53.4 °F 30 in NW 0.9 mph 2 mph 92% 0 in 0 W/m2
00:50 55.8 °F 53.4 °F 30 in NW 2 mph 2 mph 92% 0 in 0 W/m2
00:55 55.8 °F 53.4 °F 30 in Calm   2 mph 92% 0 in 0 W/m2
01:00 55.8 °F 53.4 °F 30 in Calm     92% 0 in 0 W/m2
01:05 55.8 °F 53.4 °F 30 in NW 0.9 mph 1 mph 92% 0 in 0 W/m2
01:10 55.8 °F 53.4 °F 30 in Calm   1 mph 92% 0 in 0 W/m2
01:15 55.8 °F 53.4 °F 30 in Calm     92% 0 in 0 W/m2
01:20 55.8 °F 53.4 °F 30 in Calm     92% 0 in 0 W/m2
01:25 55.8 °F 53.4 °F 30 in NW 2 mph 3 mph 92% 0 in 0 W/m2
01:30 55.8 °F 53.4 °F 30 in WNW 2 mph 2 mph 92% 0 in 0 W/m2
01:35 55.8 °F 53.4 °F 30 in West 2 mph 3 mph 92% 0 in 0 W/m2
01:40 55.8 °F 53.4 °F 30 in West 2 mph 4 mph 92% 0 in 0 W/m2
01:45 55.6 °F 53.2 °F 30 in West 2 mph 2 mph 92% 0 in 0 W/m2
01:50 55.6 °F 53.2 °F 30 in WSW 4 mph 7 mph 92% 0 in 0 W/m2
01:55 55.6 °F 53.2 °F 30 in WNW 2.9 mph 4 mph 92% 0 in 0 W/m2
02:00 55.6 °F 53.2 °F 30 in WSW 0.9 mph 4 mph 92% 0 in 0 W/m2
02:05 55.6 °F 53.1 °F 30 in West 2 mph 4 mph 91% 0 in 0 W/m2
02:10 55.6 °F 53.2 °F 30 in West 0.9 mph 2 mph 92% 0 in 0 W/m2
02:15 55.4 °F 53.1 °F 30 in West 4 mph 4 mph 92% 0 in 0 W/m2
02:20 55.4 °F 53.1 °F 30 in West 2 mph 3 mph 92% 0 in 0 W/m2
02:25 55.4 °F 53.1 °F 30 in West 0.9 mph 3 mph 92% 0 in 0 W/m2
02:30 55.4 °F 53.1 °F 30 in WNW 2.9 mph 5 mph 92% 0 in 0 W/m2
02:35 55.4 °F 53.1 °F 30 in West 2 mph 3 mph 92% 0 in 0 W/m2
02:40 55.2 °F 52.9 °F 30 in West 2.9 mph 4 mph 92% 0 in 0 W/m2
02:45 55.2 °F 52.9 °F 30 in WSW 2 mph 4 mph 92% 0 in 0 W/m2
02:50 55 °F 52.7 °F 30 in WNW 2.9 mph 6 mph 92% 0 in 0 W/m2
02:55 55 °F 52.7 °F 30 in WNW 0.9 mph 4 mph 92% 0 in 0 W/m2
03:00 55 °F 52.7 °F 30 in Calm   1 mph 92% 0 in 0 W/m2
03:05 55 °F 52.7 °F 30 in WSW 2 mph 2 mph 92% 0 in 0 W/m2
03:10 55 °F 52.7 °F 30 in Calm   2 mph 92% 0 in 0 W/m2
03:15 55 °F 52.7 °F 30 in WNW 0.9 mph 2 mph 92% 0 in 0 W/m2
03:20 55 °F 52.7 °F 30 in East 2 mph 2 mph 92% 0 in 0 W/m2
03:25 55 °F 52.7 °F 30 in WNW 0.9 mph 3 mph 92% 0 in 0 W/m2
03:30 55 °F 52.7 °F 30 in Calm   2 mph 92% 0 in 0 W/m2
03:35 55 °F 52.7 °F 30 in Calm   3 mph 92% 0 in 0 W/m2
03:40 55 °F 52.7 °F 30 in West 2 mph 4 mph 92% 0 in 0 W/m2
03:45 55 °F 52.5 °F 30 in WSW 0.9 mph 1 mph 91% 0 in 0 W/m2
03:50 55 °F 52.7 °F 30 in NW 2 mph 4 mph 92% 0 in 0 W/m2
03:55 55 °F 52.5 °F 30 in NW 0.9 mph 3 mph 91% 0 in 0 W/m2
04:01 55 °F 52.5 °F 30 in NW 0.9 mph 2 mph 91% 0 in 0 W/m2
04:06 55 °F 52.7 °F 30 in Calm   3 mph 92% 0 in 0 W/m2
04:11 54.9 °F 52.5 °F 30 in Calm   3 mph 92% 0 in 0 W/m2
04:16 54.9 °F 52.5 °F 30 in Calm   1 mph 92% 0 in 0 W/m2
04:21 54.9 °F 52.5 °F 30 in Calm   2 mph 92% 0 in 0 W/m2
04:26 54.9 °F 52.5 °F 30 in ESE 2 mph 3 mph 92% 0 in 0 W/m2
04:31 54.9 °F 52.5 °F 30 in East 2 mph 4 mph 92% 0 in 0 W/m2
04:36 54.9 °F 52.5 °F 30 in Calm     92% 0 in 0 W/m2
04:41 54.9 °F 52.5 °F 30 in East 0.9 mph 3 mph 92% 0 in 0 W/m2
04:46 54.9 °F 52.5 °F 30 in Calm   1 mph 92% 0 in 0 W/m2
04:51 54.7 °F 52.3 °F 30 in East 0.9 mph 1 mph 92% 0 in 0 W/m2
04:56 54.7 °F 52.3 °F 30 in East 0.9 mph 2 mph 92% 0 in 0 W/m2
05:01 54.7 °F 52.3 °F 30 in NE 0.9 mph 2 mph 92% 0 in 0 W/m2
05:06 54.7 °F 52.3 °F 30 in NNE 0.9 mph 3 mph 92% 0 in 0 W/m2
05:11 54.5 °F 52.2 °F 30 in NNE 0.9 mph 2 mph 92% 0 in 0 W/m2
05:16 54.5 °F 52.2 °F 30 in Calm   1 mph 92% 0 in 0 W/m2
05:21 54.5 °F 52.2 °F 30 in WNW 0.9 mph 1 mph 92% 0 in 0 W/m2
05:26 54.5 °F 52.2 °F 30 in SW 0.9 mph 2 mph 92% 0 in 0 W/m2
05:31 54.3 °F 52 °F 30 in SW 0.9 mph 2 mph 92% 0 in 0 W/m2
05:36 54.5 °F 52.2 °F 30 in SW 2 mph 2 mph 92% 0 in 0 W/m2
05:41 54.5 °F 52.2 °F 30 in SW 2 mph 2 mph 92% 0 in 0 W/m2
05:46 54.7 °F 52.3 °F 30 in NW 0.9 mph 3 mph 92% 0 in 0 W/m2
05:51 54.7 °F 52.3 °F 30 in West 2.9 mph 4 mph 92% 0 in 5 W/m2
05:56 54.7 °F 52.3 °F 30 in WNW 2.9 mph 4 mph 92% 0 in 9 W/m2
06:01 54.7 °F 52.3 °F 30 in WSW 2 mph 3 mph 92% 0 in 11 W/m2
06:06 54.9 °F 52.5 °F 30 in West 2 mph 5 mph 92% 0 in 12 W/m2
06:11 54.9 °F 52.5 °F 30 in West 2.9 mph 3 mph 92% 0 in 23 W/m2
06:16 54.9 °F 52.5 °F 30 in WSW 2 mph 2 mph 92% 0 in 33 W/m2
06:21 54.9 °F 52.5 °F 30 in Calm   3 mph 92% 0 in 32 W/m2
06:26 55 °F 52.7 °F 30 in West 4 mph 4 mph 92% 0 in 47 W/m2
06:31 55 °F 52.7 °F 30 in NNW 2 mph 3 mph 92% 0 in 58 W/m2
06:36 55.2 °F 52.9 °F 30 in NNW 2 mph 4 mph 92% 0 in 53 W/m2
06:41 55.4 °F 53.1 °F 30 in NW 2.9 mph 3 mph 92% 0 in 40 W/m2
06:46 55.6 °F 53.2 °F 30 in SSW 2.9 mph 5 mph 92% 0 in 39 W/m2
06:51 55.6 °F 53.2 °F 30 in WNW 0.9 mph 3 mph 92% 0 in 49 W/m2
06:56 55.6 °F 53.2 °F 30 in WNW 2 mph 4 mph 92% 0 in 65 W/m2
07:01 55.8 °F 53.4 °F 30 in NW 2 mph 5 mph 92% 0 in 69 W/m2
07:06 55.8 °F 53.2 °F 30 in WSW 2 mph 4 mph 91% 0 in 69 W/m2
07:11 55.8 °F 53.2 °F 30 in West 0.9 mph 7 mph 91% 0 in 84 W/m2
07:16 55.8 °F 53.2 °F 30 in NW 4 mph 4 mph 91% 0 in 93 W/m2
07:21 55.9 °F 53.4 °F 30 in WNW 0.9 mph 7 mph 91% 0 in 77 W/m2
07:26 55.9 °F 53.4 °F 30 in WNW 0.9 mph 5 mph 91% 0 in 72 W/m2
07:31 56.1 °F 53.6 °F 30 in WNW 2 mph 3 mph 91% 0 in 74 W/m2
07:36 56.1 °F 53.6 °F 30 in NNW 0.9 mph 5 mph 91% 0 in 81 W/m2
07:41 56.1 °F 53.6 °F 30.1 in East 2 mph 2 mph 91% 0 in 49 W/m2
07:46 56.3 °F 53.4 °F 30 in WNW 2 mph 4 mph 90% 0 in 84 W/m2
07:51 56.5 °F 54 °F 30.1 in Calm     91% 0 in 118 W/m2
07:56 56.7 °F 54.1 °F 30 in Calm   4 mph 91% 0 in 142 W/m2
08:01 56.8 °F 54 °F 30.1 in NW 4 mph 4 mph 90% 0 in 116 W/m2
08:06 57 °F 54.1 °F 30.1 in Calm   3 mph 90% 0 in 83 W/m2
08:11 57 °F 53.8 °F 30.1 in West 2 mph 4 mph 89% 0 in 91 W/m2
08:16 57 °F 53.8 °F 30.1 in WNW 0.9 mph 2 mph 89% 0 in 139 W/m2
08:21 57.2 °F 54 °F 30.1 in West 0.9 mph 4 mph 89% 0 in 58 W/m2
08:26 57.2 °F 53.6 °F 30.1 in Calm   3 mph 88% 0 in 153 W/m2
08:31 57.4 °F 53.8 °F 30.1 in Calm   4 mph 88% 0 in 195 W/m2
08:36 57.6 °F 54.3 °F 30.1 in WNW 0.9 mph 2 mph 89% 0 in 169 W/m2
08:41 58.3 °F 54.5 °F 30 in WNW 2 mph 6 mph 87% 0 in 56 W/m2
08:46 58.3 °F 54.1 °F 30.1 in WSW 4.9 mph 7 mph 86% 0 in 144 W/m2
08:51 57.9 °F 53.8 °F 30.1 in SSW 4.9 mph 5 mph 86% 0 in 60 W/m2
08:56 57.7 °F 53.2 °F 30.1 in West 2.9 mph 4 mph 85% 0 in 58 W/m2
09:01 57.7 °F 53.6 °F 30.1 in WSW 4 mph 5 mph 86% 0 in 225 W/m2
09:06 58.1 °F 54 °F 30.1 in NW 0.9 mph 7 mph 86% 0 in 207 W/m2
09:11 58.5 °F 54 °F 30.1 in WSW 4 mph 6 mph 85% 0 in 116 W/m2
09:16 58.5 °F 54 °F 30.1 in West 2 mph 6 mph 85% 0 in 93 W/m2
09:21 58.1 °F 53.6 °F 30.1 in WNW 0.9 mph 4 mph 85% 0 in 204 W/m2
09:26 58.3 °F 54.1 °F 30.1 in WNW 2.9 mph 7 mph 86% 0 in 151 W/m2
09:31 58.3 °F 53.8 °F 30.1 in WNW 2 mph 3 mph 85% 0 in 171 W/m2
09:36 58.5 °F 53.6 °F 30.1 in NNW 4.9 mph 7 mph 84% 0 in 160 W/m2
09:41 58.6 °F 53.8 °F 30.1 in West 0.9 mph 6 mph 84% 0 in 102 W/m2
09:46 59.5 °F 54.3 °F 30.1 in West 0.9 mph 4 mph 83% 0 in 113 W/m2
09:51 60.3 °F 54.3 °F 30.1 in WSW 4 mph 8 mph 81% 0 in 279 W/m2
09:56 60.6 °F 54.5 °F 30.1 in South 2 mph 4 mph 80% 0 in 214 W/m2
10:01 60.8 °F 54.3 °F 30.1 in WNW 2.9 mph 3 mph 79% 0 in 638 W/m2
10:06 61.2 °F 54.3 °F 30.1 in NW 2.9 mph 8 mph 78% 0 in 197 W/m2
10:11 61.2 °F 54.3 °F 30.1 in West 4 mph 6 mph 78% 0 in 137 W/m2
10:16 60.6 °F 53.8 °F 30.1 in WNW 2.9 mph 4 mph 78% 0 in 234 W/m2
10:21 60.6 °F 53.8 °F 30.1 in WNW 2.9 mph 7 mph 78% 0 in 148 W/m2
10:26 60.4 °F 53.6 °F 30.1 in West 2 mph 6 mph 78% 0 in 185 W/m2
10:31 60.4 °F 54 °F 30.1 in NNW 2.9 mph 5 mph 79% 0 in 664 W/m2
10:36 61.2 °F 54.7 °F 30.1 in NW 0.9 mph 7 mph 79% 0 in 726 W/m2
10:41 61.5 °F 54.7 °F 30.1 in WSW 2.9 mph 4 mph 78% 0 in 800 W/m2
10:46 62.2 °F 55.2 °F 30.1 in WNW 8.1 mph 10 mph 78% 0 in 756 W/m2
10:51 62.4 °F 55.4 °F 30.1 in ENE 2 mph 3 mph 78% 0 in 726 W/m2
10:56 63 °F 54.5 °F 30.1 in WSW 0.9 mph 7 mph 74% 0 in 752 W/m2
11:01 63.3 °F 54.9 °F 30.1 in WNW 8.9 mph 9 mph 74% 0 in 842 W/m2
11:06 63.7 °F 54.1 °F 30.1 in NNW 4 mph 7 mph 71% 0 in 877 W/m2
11:11 63.7 °F 54.1 °F 30.1 in NW 4 mph 6 mph 71% 0 in 904 W/m2
11:16 63.3 °F 52.5 °F 30.1 in WNW 4 mph 7 mph 68% 0 in 156 W/m2
11:21 63.1 °F 53.6 °F 30.1 in WNW 6.9 mph 8 mph 71% 0 in 120 W/m2
11:26 62.6 °F 53.4 °F 30.1 in WNW 4 mph 7 mph 72% 0 in 188 W/m2
11:31 62.4 °F 53.6 °F 30.1 in WSW 4 mph 7 mph 73% 0 in 192 W/m2
11:36 62.4 °F 54 °F 30.1 in WNW 4.9 mph 7 mph 74% 0 in 160 W/m2
11:41 62.4 °F 52.9 °F 30.1 in NNW 2.9 mph 5 mph 71% 0 in 135 W/m2
11:46 62.8 °F 52.9 °F 30.1 in SSW 4 mph 6 mph 70% 0 in 872 W/m2
11:51 63.7 °F 53.8 °F 30.1 in SW 2.9 mph 4 mph 70% 0 in 886 W/m2
11:56 64.4 °F 54.3 °F 30.1 in NW 0.9 mph 4 mph 70% 0 in 907 W/m2
12:01 65.1 °F 54.7 °F 30.1 in West 4 mph 4 mph 69% 0 in 949 W/m2
12:06 65.8 °F 52.9 °F 30.1 in West 4 mph 9 mph 63% 0 in 984 W/m2
12:11 65.8 °F 53.2 °F 30.1 in WSW 4.9 mph 13 mph 64% 0 in 954 W/m2
12:16 65.8 °F 53.8 °F 30.1 in NW 8.1 mph 8 mph 65% 0 in 1000 W/m2
12:21 65.5 °F 53.1 °F 30.1 in NNW 2.9 mph 13 mph 64% 0 in 1000 W/m2
12:26 65.7 °F 54 °F 30.1 in SW 2 mph 4 mph 66% 0 in 1060 W/m2
12:31 65.8 °F 52.5 °F 30.1 in WSW 2.9 mph 8 mph 62% 0 in 190 W/m2
12:36 65.7 °F 52.3 °F 30.1 in WNW 0.9 mph 5 mph 62% 0 in 956 W/m2
12:42 65.5 °F 52.5 °F 30.1 in West 2.9 mph 8 mph 63% 0 in 156 W/m2
12:47 64.9 °F 52 °F 30.1 in WNW 2 mph 7 mph 63% 0 in 165 W/m2
12:52 65.1 °F 51.8 °F 30.1 in WSW 2.9 mph 5 mph 62% 0 in 142 W/m2
12:57 65.7 °F 52.7 °F 30.1 in ENE 0.9 mph 3 mph 63% 0 in 461 W/m2
13:02 66.6 °F 52.7 °F 30.1 in NE 4 mph 5 mph 61% 0 in 506 W/m2
13:07 67.5 °F 52.2 °F 30.1 in WNW 2.9 mph 5 mph 58% 0 in 1188 W/m2
13:12 67.5 °F 52.2 °F 30.1 in WNW 4 mph 8 mph 58% 0 in 907 W/m2
13:17 66.9 °F 52.2 °F 30.1 in WSW 4 mph 7 mph 59% 0 in 297 W/m2
13:22 66.7 °F 52 °F 30.1 in WSW 6.9 mph 7 mph 59% 0 in 318 W/m2
13:27 66.2 °F 50.5 °F 30.1 in West 0.9 mph 8 mph 57% 0 in 371 W/m2
13:32 66.6 °F 52.2 °F 30.1 in WNW 6.9 mph 8 mph 60% 0 in 979 W/m2
13:37 66.7 °F 52.3 °F 30.1 in SW 2.9 mph 7 mph 60% 0 in 965 W/m2
13:42 67.6 °F 52.9 °F 30.1 in NW 2 mph 4 mph 59% 0 in 960 W/m2
13:47 67.8 °F 50 °F 30.1 in West 0.9 mph 4 mph 53% 0 in 1127 W/m2
13:52 67.6 °F 50.9 °F 30.1 in NNW 2 mph 5 mph 55% 0 in 1130 W/m2
13:57 67.8 °F 50.5 °F 30.1 in South 0.9 mph 6 mph 54% 0 in 313 W/m2
14:02 68 °F 51.8 °F 30.1 in WNW 6.9 mph 8 mph 56% 0 in 1092 W/m2
14:07 68.4 °F 52 °F 30.1 in SW 2.9 mph 7 mph 56% 0 in 972 W/m2
14:12 68.4 °F 51.1 °F 30.1 in West 6 mph 9 mph 54% 0 in 1005 W/m2
14:17 68.2 °F 50.9 °F 30.1 in West 2.9 mph 10 mph 54% 0 in 234 W/m2
14:22 67.6 °F 51.4 °F 30.1 in WNW 2.9 mph 4 mph 56% 0 in 243 W/m2
14:27 67.5 °F 51.3 °F 30.1 in NW 4 mph 10 mph 56% 0 in 809 W/m2
14:32 67.8 °F 52 °F 30.1 in WSW 0.9 mph 2 mph 57% 0 in 176 W/m2
14:37 68.2 °F 50.9 °F 30.1 in NW 2.9 mph 8 mph 54% 0 in 1009 W/m2
14:42 68.5 °F 50.7 °F 30.1 in WNW 6.9 mph 8 mph 53% 0 in 1005 W/m2
14:47 68.9 °F 51.1 °F 30.1 in SW 2.9 mph 4 mph 53% 0 in 1046 W/m2
14:52 68.9 °F 49.5 °F 30.1 in ESE 0.9 mph 3 mph 50% 0 in 225 W/m2
14:57 68.7 °F 50.4 °F 30.1 in West 2.9 mph 6 mph 52% 0 in 260 W/m2
15:02 69.1 °F 51.8 °F 30.1 in WNW 6.9 mph 11 mph 54% 0 in 1114 W/m2
15:07 69.6 °F 51.8 °F 30.1 in WSW 4 mph 9 mph 53% 0 in 1071 W/m2
15:12 70 °F 50.5 °F 30.1 in WNW 4 mph 11 mph 50% 0 in 287 W/m2
15:17 70.2 °F 50.7 °F 30.1 in WNW 4.9 mph 7 mph 50% 0 in 1055 W/m2
15:22 70.3 °F 49.6 °F 30.1 in WNW 2 mph 4 mph 48% 0 in 367 W/m2
15:27 70.5 °F 50.9 °F 30.1 in NW 4.9 mph 10 mph 50% 0 in 993 W/m2
15:32 70.3 °F 52.3 °F 30.1 in NW 13 mph 13 mph 53% 0 in 993 W/m2
15:37 69.3 °F 52.3 °F 30.1 in West 11 mph 12 mph 55% 0 in 1046 W/m2
15:42 69.4 °F 52.5 °F 30.1 in West 6 mph 11 mph 55% 0 in 1028 W/m2
15:47 69.3 °F 52 °F 30.1 in WNW 8.9 mph 11 mph 54% 0 in 318 W/m2
15:52 68.5 °F 51.3 °F 30.1 in West 6 mph 8 mph 54% 0 in 244 W/m2
15:57 68 °F 51.3 °F 30.1 in WSW 8.9 mph 14 mph 55% 0 in 250 W/m2
16:02 67.3 °F 51.1 °F 30.1 in West 6.9 mph 11 mph 56% 0 in 294 W/m2
16:07 66.7 °F 50.5 °F 30.1 in West 2.9 mph 10 mph 56% 0 in 364 W/m2
16:12 66.9 °F 51.3 °F 30.1 in West 8.1 mph 9 mph 57% 0 in 397 W/m2
16:17 67.3 °F 51.4 °F 30.1 in WNW 6.9 mph 8 mph 57% 0 in 990 W/m2
16:22 68.2 °F 51.8 °F 30.1 in WNW 0.9 mph 9 mph 56% 0 in 830 W/m2
16:27 69.1 °F 51.8 °F 30.1 in NW 2.9 mph 8 mph 54% 0 in 784 W/m2
16:32 69.4 °F 50 °F 30.1 in NW 6.9 mph 9 mph 50% 0 in 758 W/m2
16:37 69.6 °F 49.6 °F 30.1 in WNW 4 mph 8 mph 49% 0 in 749 W/m2
16:42 69.8 °F 49.8 °F 30.1 in WNW 4 mph 10 mph 49% 0 in 745 W/m2
16:47 70 °F 50.5 °F 30.1 in NW 4 mph 9 mph 50% 0 in 766 W/m2
16:52 70.2 °F 50.2 °F 30.1 in WNW 2.9 mph 7 mph 49% 0 in 726 W/m2
16:57 70.2 °F 49.6 °F 30.1 in WNW 6 mph 11 mph 48% 0 in 729 W/m2
17:02 70 °F 50 °F 30.1 in WSW 2.9 mph 6 mph 49% 0 in 740 W/m2
17:07 70 °F 50 °F 30.1 in NW 0.9 mph 4 mph 49% 0 in 789 W/m2
17:12 70.2 °F 49.6 °F 30.1 in NW 2.9 mph 5 mph 48% 0 in 172 W/m2
17:17 70.2 °F 49.6 °F 30.1 in NW 4.9 mph 11 mph 48% 0 in 153 W/m2
17:22 69.8 °F 49.8 °F 30.1 in WSW 4.9 mph 6 mph 49% 0 in 171 W/m2
17:27 69.3 °F 49.8 °F 30.1 in WNW 4 mph 11 mph 50% 0 in 251 W/m2
17:32 69.4 °F 50.5 °F 30.1 in West 2.9 mph 10 mph 51% 0 in 227 W/m2
17:37 69.4 °F 50 °F 30.1 in ENE 2 mph 4 mph 50% 0 in 174 W/m2
17:42 69.4 °F 50 °F 30.1 in SSW 0.9 mph 9 mph 50% 0 in 190 W/m2
17:47 69.1 °F 50.2 °F 30.1 in SSW 2.9 mph 6 mph 51% 0 in 225 W/m2
17:52 68.9 °F 50 °F 30.1 in WSW 2 mph 8 mph 51% 0 in 193 W/m2
17:57 69.1 °F 50.7 °F 30.1 in West 2 mph 4 mph 52% 0 in 246 W/m2
18:02 69.3 °F 51.4 °F 30.1 in Calm   2 mph 53% 0 in 700 W/m2
18:07 70 °F 51.1 °F 30.1 in NW 2 mph 3 mph 51% 0 in 647 W/m2
18:12 71.1 °F 52 °F 30.1 in WNW 2 mph 6 mph 51% 0 in 554 W/m2
18:17 71.4 °F 49.6 °F 30.1 in WNW 2.9 mph 10 mph 46% 0 in 517 W/m2
18:22 71.1 °F 49.8 °F 30.1 in WNW 2.9 mph 8 mph 47% 0 in 492 W/m2
18:27 70.9 °F 50.2 °F 30.1 in NW 4 mph 10 mph 48% 0 in 464 W/m2
18:32 70.9 °F 50.7 °F 30.1 in West 2 mph 8 mph 49% 0 in 429 W/m2
18:37 70.9 °F 50.7 °F 30.1 in WSW 2.9 mph 6 mph 49% 0 in 397 W/m2
18:42 70.9 °F 50.7 °F 30.1 in WNW 2 mph 3 mph 49% 0 in 397 W/m2
18:47 70.3 °F 50.9 °F 30.1 in WSW 4 mph 5 mph 50% 0 in 76 W/m2
18:52 70 °F 51.1 °F 30.1 in WNW 2.9 mph 4 mph 51% 0 in 323 W/m2
18:57 70.2 °F 50.7 °F 30.1 in WNW 2.9 mph 3 mph 50% 0 in 86 W/m2
19:02 70.3 °F 50.9 °F 30.1 in WSW 2 mph 9 mph 50% 0 in 79 W/m2
19:07 70.2 °F 50.7 °F 30.1 in WSW 2 mph 5 mph 50% 0 in 49 W/m2
19:12 70.3 °F 51.4 °F 30.1 in WNW 0.9 mph 9 mph 51% 0 in 65 W/m2
19:17 70.5 °F 50.9 °F 30.1 in West 8.1 mph 8 mph 50% 0 in 63 W/m2
19:22 70.3 °F 50.9 °F 30.1 in WSW 2.9 mph 4 mph 50% 0 in 74 W/m2
19:27 70.9 °F 50.7 °F 30.1 in WNW 2.9 mph 6 mph 49% 0 in 98 W/m2
19:32 71.1 °F 50.9 °F 30.1 in West 6 mph 6 mph 49% 0 in 98 W/m2
19:37 70.5 °F 50.9 °F 30.1 in NW 4.9 mph 8 mph 50% 0 in 81 W/m2
19:42 69.8 °F 50.9 °F 30.1 in West 6 mph 9 mph 51% 0 in 60 W/m2
19:47 69.1 °F 50.7 °F 30.1 in West 6 mph 7 mph 52% 0 in 40 W/m2
19:52 68.4 °F 50.5 °F 30.1 in WSW 4 mph 8 mph 53% 0 in 44 W/m2
19:57 67.8 °F 50 °F 30.1 in West 2 mph 4 mph 53% 0 in 39 W/m2
20:02 67.5 °F 50.2 °F 30.1 in West 4 mph 4 mph 54% 0 in 40 W/m2
20:07 67.1 °F 50.4 °F 30.1 in SW 2 mph 3 mph 55% 0 in 37 W/m2
20:12 66.7 °F 50 °F 30.1 in West 0.9 mph 3 mph 55% 0 in 33 W/m2
20:17 66.6 °F 50.4 °F 30.1 in West 2 mph 3 mph 56% 0 in 33 W/m2
20:22 66.4 °F 50.7 °F 30.1 in West 0.9 mph 2 mph 57% 0 in 35 W/m2
20:27 66 °F 50.9 °F 30.1 in West 0.9 mph 2 mph 58% 0 in 28 W/m2
20:32 65.8 °F 50.7 °F 30.1 in SW 0.9 mph 5 mph 58% 0 in 23 W/m2
20:37 65.7 °F 50.9 °F 30.1 in WSW 2 mph 3 mph 59% 0 in 19 W/m2
20:42 65.5 °F 51.3 °F 30.1 in WSW 0.9 mph 5 mph 60% 0 in 19 W/m2
20:47 65.3 °F 51.1 °F 30.1 in WSW 0.9 mph 2 mph 60% 0 in 18 W/m2
20:52 65.1 °F 50.9 °F 30.1 in West 2.9 mph 4 mph 60% 0 in 49 W/m2
20:57 65.3 °F 51.1 °F 30.1 in West 2.9 mph 4 mph 60% 0 in 53 W/m2
21:02 65.7 °F 50.9 °F 30.1 in West 2.9 mph 3 mph 59% 0 in 44 W/m2
21:07 65.8 °F 50.7 °F 30.1 in WSW 2.9 mph 3 mph 58% 0 in 37 W/m2
21:12 66 °F 50.9 °F 30.1 in WSW 2.9 mph 3 mph 58% 0 in 30 W/m2
21:17 66 °F 50.9 °F 30.1 in WSW 2 mph 2 mph 58% 0 in 14 W/m2
21:22 65.8 °F 50.7 °F 30.1 in West 2 mph 4 mph 58% 0 in 12 W/m2
21:27 65.5 °F 50.7 °F 30.1 in West 0.9 mph 4 mph 59% 0 in 11 W/m2
21:32 65.3 °F 51.1 °F 30.1 in WSW 0.9 mph 2 mph 60% 0 in 7 W/m2
21:37 64.9 °F 51.1 °F 30.1 in Calm   4 mph 61% 0 in 5 W/m2
21:42 64.8 °F 51.1 °F 30.1 in WSW 2 mph 3 mph 61% 0 in 5 W/m2
21:47 64.4 °F 51.1 °F 30.1 in WSW 0.9 mph 2 mph 62% 0 in 0 W/m2
21:52 64 °F 51.6 °F 30.1 in Calm     64% 0 in 0 W/m2
21:57 63.7 °F 51.6 °F 30.1 in Calm   1 mph 65% 0 in 0 W/m2
22:02 63.3 °F 51.8 °F 30.1 in Calm     66% 0 in 0 W/m2
22:07 63 °F 51.8 °F 30.1 in WSW 2 mph 2 mph 67% 0 in 0 W/m2
22:12 62.4 °F 51.8 °F 30.1 in West 0.9 mph 2 mph 68% 0 in 0 W/m2
22:17 62.1 °F 51.4 °F 30.1 in Calm   2 mph 68% 0 in 0 W/m2
22:22 61.9 °F 51.6 °F 30.1 in Calm     69% 0 in 0 W/m2
22:27 61.5 °F 51.6 °F 30.1 in Calm     70% 0 in 0 W/m2
22:32 61.3 °F 51.4 °F 30.1 in Calm     70% 0 in 0 W/m2
22:37 61 °F 51.1 °F 30.1 in Calm     70% 0 in 0 W/m2
22:42 60.6 °F 51.1 °F 30.2 in Calm     71% 0 in 0 W/m2
22:47 60.4 °F 51.4 °F 30.2 in Calm     72% 0 in 0 W/m2
22:52 60.1 °F 51.1 °F 30.2 in Calm     72% 0 in 0 W/m2
22:57 59.7 °F 51.1 °F 30.2 in Calm     73% 0 in 0 W/m2
23:02 59.5 °F 51.3 °F 30.2 in Calm     74% 0 in 0 W/m2
23:07 59.4 °F 51.1 °F 30.2 in Calm     74% 0 in 0 W/m2
23:12 59 °F 51.1 °F 30.2 in Calm     75% 0 in 0 W/m2
23:17 58.8 °F 51.3 °F 30.2 in Calm     76% 0 in 0 W/m2
23:22 58.6 °F 51.1 °F 30.2 in Calm     76% 0 in 0 W/m2
23:27 58.5 °F 50.9 °F 30.2 in Calm     76% 0 in 0 W/m2
23:32 58.3 °F 50.7 °F 30.2 in Calm     76% 0 in 0 W/m2
23:37 58.3 °F 50.7 °F 30.2 in Calm     76% 0 in 0 W/m2
23:42 57.9 °F 50.4 °F 30.2 in Calm     76% 0 in 0 W/m2
23:47 57.7 °F 50.2 °F 30.2 in Calm     76% 0 in 0 W/m2
23:52 57.7 °F 50.5 °F 30.2 in Calm     77% 0 in 0 W/m2
23:57 57.6 °F 50.4 °F 30.2 in Calm     77% 0 in 0 W/m2
Juneau County Weather
Compliments of Weather Underground - 4 mb